This is the latest recevied weather packets stored in our database for station/object EA4BCR. If no packets are shown the sender has not sent any weather packets the latest 10 day(s).
| Time | Temp. | Humidity | Pressure | Rain* | Wind** | Luminosity | Snow |
|---|---|---|---|---|---|---|---|
| 1787592012 | 25.56° C | 34% | 1010.9 hPa | - | - | - | - |
| 1787591412 | 25° C | 33% | 1010.9 hPa | - | - | - | - |
| 1787590811 | 26.11° C | 31% | 1010.5 hPa | - | - | - | - |
| 1787590211 | 26.11° C | 31% | 1010.4 hPa | - | - | - | - |
| 1787589611 | 26.11° C | 32% | 1010.4 hPa | - | - | - | - |
| 1787589011 | 26.67° C | 31% | 1010.5 hPa | - | - | - | - |
| 1787588412 | 26.67° C | 32% | 1010.4 hPa | - | - | - | - |
| 1787587812 | 26.67° C | 30% | 1010.4 hPa | - | - | - | - |
| 1787587211 | 26.67° C | 29% | 1010.5 hPa | - | - | - | - |
| 1787586612 | 27.22° C | 31% | 1010.3 hPa | - | - | - | - |
| 1787586011 | 26.11° C | 31% | 1010.6 hPa | - | - | - | - |
| 1787585412 | 26.67° C | 39% | 1010.6 hPa | - | - | - | - |
| 1787584811 | 26.67° C | 37% | 1010.5 hPa | - | - | - | - |
| 1787584211 | 26.67° C | 38% | 1010.4 hPa | - | - | - | - |
| 1787583611 | 26.11° C | 39% | 1010.9 hPa | - | - | - | - |
| 1787583011 | 27.22° C | 38% | 1010.7 hPa | - | - | - | - |
| 1787582411 | 26.67° C | 38% | 1010.7 hPa | - | - | - | - |
| 1787581811 | 27.22° C | 36% | 1010.7 hPa | - | - | - | - |
| 1787581211 | 27.78° C | 37% | 1010.8 hPa | - | - | - | - |
| 1787580611 | 26.67° C | 41% | 1011.2 hPa | - | - | - | - |
| 1787580011 | 26.67° C | 43% | 1011.2 hPa | - | - | - | - |
| 1787579411 | 26.11° C | 45% | 1011.7 hPa | - | - | - | - |
| 1787578811 | 26.67° C | 44% | 1011.8 hPa | - | - | - | - |
| 1787578211 | 26.67° C | 42% | 1011.7 hPa | - | - | - | - |
| 1787577611 | 26.67° C | 43% | 1011.7 hPa | - | - | - | - |
* Rain since midnight (hover to see other rain measurements)
** Current wind speed in m/s (hover to see current wind gust speed)